Time;durP1;ratioP1;P1;durP2;ratioP2;P2;SDS_P1;SDS_P2;PMS_P1;PMS_P2;Temp;Humidity;BMP_temperature;BMP_pressure;BME280_temperature;BME280_humidity;BME280_pressure;Samples;Min_cycle;Max_cycle;Signal;HPM_P1;HPM_P2
2020/12/18 00:00:16;;;;;;;106.47;24.45;;;2.00;99.90;;;;;;5055136;28;20029;-75
2020/12/18 00:02:41;;;;;;;82.47;24.35;;;2.00;99.90;;;;;;5055685;28;20025;-75
2020/12/18 00:05:07;;;;;;;53.95;22.25;;;2.00;99.90;;;;;;5053811;28;20074;-76
2020/12/18 00:07:32;;;;;;;108.00;25.90;;;2.00;99.90;;;;;;5037134;28;20062;-76
2020/12/18 00:09:58;;;;;;;255.25;37.85;;;2.00;99.90;;;;;;5053709;28;20092;-76
2020/12/18 00:12:23;;;;;;;81.57;22.52;;;1.90;99.90;;;;;;5052396;28;20021;-76
2020/12/18 00:14:49;;;;;;;95.97;23.35;;;1.90;99.90;;;;;;5037094;28;20036;-75
2020/12/18 00:17:14;;;;;;;73.82;20.58;;;1.90;99.90;;;;;;5036961;28;20032;-76
2020/12/18 00:19:40;;;;;;;39.40;19.20;;;1.90;99.90;;;;;;5053577;28;20037;-76
2020/12/18 00:22:05;;;;;;;67.20;19.33;;;1.90;99.90;;;;;;5054657;28;20037;-76
2020/12/18 00:24:31;;;;;;;86.72;22.60;;;2.00;99.90;;;;;;5053447;28;20057;-75
2020/12/18 00:26:56;;;;;;;160.55;29.23;;;1.90;99.90;;;;;;5036683;28;20045;-76
2020/12/18 00:29:22;;;;;;;125.95;25.08;;;1.90;99.90;;;;;;5054667;28;20054;-75
2020/12/18 00:31:48;;;;;;;74.35;21.02;;;1.90;99.90;;;;;;5054588;28;20025;-76
2020/12/18 00:34:13;;;;;;;115.30;22.13;;;1.90;99.90;;;;;;5054553;28;20377;-75
2020/12/18 00:36:39;;;;;;;76.43;19.55;;;1.90;99.90;;;;;;5054638;28;20087;-75
2020/12/18 00:39:06;;;;;;;132.45;22.27;;;1.90;99.90;;;;;;5054486;28;20021;-76
2020/12/18 00:41:32;;;;;;;27.48;15.10;;;1.90;99.90;;;;;;5054416;28;20043;-76
2020/12/18 00:43:58;;;;;;;33.15;14.93;;;1.90;99.90;;;;;;5054290;28;20037;-76
2020/12/18 00:46:24;;;;;;;36.35;15.18;;;1.90;99.90;;;;;;5054245;28;20017;-75
2020/12/18 00:48:49;;;;;;;59.97;19.00;;;1.90;99.90;;;;;;5053043;28;20017;-76
2020/12/18 00:51:18;;;;;;;136.88;22.42;;;1.90;99.90;;;;;;5054243;28;20395;-76
2020/12/18 00:53:44;;;;;;;108.82;21.95;;;1.80;99.90;;;;;;5052973;28;20025;-76
2020/12/18 00:56:10;;;;;;;149.60;23.63;;;1.90;99.90;;;;;;5052849;28;20043;-76
2020/12/18 00:58:36;;;;;;;43.00;17.60;;;1.80;99.90;;;;;;5052855;28;20031;-76
2020/12/18 01:01:03;;;;;;;177.63;26.02;;;1.80;99.90;;;;;;5054074;28;20040;-76
2020/12/18 01:03:28;;;;;;;35.10;16.25;;;1.80;99.90;;;;;;5036118;28;20031;-76
2020/12/18 01:05:54;;;;;;;43.63;16.50;;;1.80;99.90;;;;;;5053922;28;20395;-76
2020/12/18 01:08:19;;;;;;;33.53;14.50;;;1.80;99.90;;;;;;5052780;28;20025;-76
2020/12/18 01:10:45;;;;;;;45.10;15.60;;;1.80;99.90;;;;;;5054060;28;20091;-76
2020/12/18 01:13:11;;;;;;;65.38;18.40;;;1.80;99.90;;;;;;5035904;28;20124;-75
2020/12/18 01:15:36;;;;;;;28.63;15.05;;;1.80;99.90;;;;;;5035983;28;20024;-76
2020/12/18 01:18:02;;;;;;;102.85;20.38;;;1.80;99.90;;;;;;5035657;28;20484;-76
2020/12/18 01:20:28;;;;;;;31.80;16.65;;;1.80;99.90;;;;;;5052406;28;20029;-76
2020/12/18 01:22:53;;;;;;;39.38;16.48;;;1.80;99.90;;;;;;5053135;28;20033;-76
2020/12/18 01:25:19;;;;;;;76.82;19.05;;;1.80;99.90;;;;;;5035750;28;20108;-76
2020/12/18 01:27:45;;;;;;;30.98;16.65;;;1.80;99.90;;;;;;5053326;28;20063;-76
2020/12/18 01:30:11;;;;;;;32.33;15.27;;;1.80;99.90;;;;;;5053837;28;20423;-76
2020/12/18 01:32:36;;;;;;;29.50;15.40;;;1.90;99.90;;;;;;5052471;28;20108;-76
2020/12/18 01:35:02;;;;;;;33.10;16.08;;;1.90;99.90;;;;;;5053511;28;20025;-76
2020/12/18 01:37:28;;;;;;;72.88;19.90;;;1.90;99.90;;;;;;5053648;28;20029;-76
2020/12/18 01:39:54;;;;;;;111.60;20.52;;;1.90;99.90;;;;;;5053342;28;20036;-76
2020/12/18 01:42:20;;;;;;;51.05;16.75;;;1.90;99.90;;;;;;5035315;28;20111;-75
2020/12/18 01:44:45;;;;;;;52.65;17.65;;;1.90;99.90;;;;;;5035320;28;20064;-75
2020/12/18 01:47:28;;;;;;;120.90;21.13;;;1.90;99.90;;;;;;5053214;28;20021;-76
2020/12/18 01:49:55;;;;;;;;;;;1.80;99.90;;;;;;5052495;28;20025;-76
2020/12/18 01:52:24;;;;;;;233.10;30.25;;;1.80;99.90;;;;;;5053288;28;19911;-75
2020/12/18 01:54:55;;;;;;;100.90;20.10;;;1.70;99.90;;;;;;5053135;28;20448;-76
2020/12/18 01:57:21;;;;;;;34.63;15.80;;;1.70;99.90;;;;;;5053057;28;20035;-76
2020/12/18 01:59:48;;;;;;;99.97;22.08;;;1.70;99.90;;;;;;5053091;28;20387;-76
2020/12/18 02:02:16;;;;;;;28.98;15.35;;;1.70;99.90;;;;;;5052896;28;20040;-76
2020/12/18 02:04:47;;;;;;;29.95;15.05;;;1.70;99.90;;;;;;5035118;28;20560;-76
2020/12/18 02:07:13;;;;;;;26.05;13.32;;;1.70;99.90;;;;;;5051691;28;20021;-76
2020/12/18 02:09:39;;;;;;;51.88;17.48;;;1.70;99.90;;;;;;5051522;28;20483;-76
2020/12/18 02:12:05;;;;;;;38.13;15.90;;;1.60;99.90;;;;;;5052831;28;20074;-75
2020/12/18 02:14:31;;;;;;;27.45;14.32;;;1.70;99.90;;;;;;5052881;28;20025;-76
2020/12/18 02:16:57;;;;;;;216.27;28.52;;;1.70;99.90;;;;;;5052676;28;20040;-76
2020/12/18 02:19:26;;;;;;;42.65;15.48;;;1.70;99.90;;;;;;5034838;28;20021;-76
2020/12/18 02:21:52;;;;;;;27.65;13.82;;;1.70;99.90;;;;;;5051313;28;20017;-76
2020/12/18 02:24:27;;;;;;;41.40;16.85;;;1.70;99.90;;;;;;5034650;28;20027;-76
2020/12/18 02:26:57;;;;;;;123.70;20.13;;;1.70;99.90;;;;;;5051120;28;20033;-76
2020/12/18 02:29:22;;;;;;;206.13;28.30;;;1.70;99.90;;;;;;5052638;28;20516;-76
2020/12/18 02:31:49;;;;;;;71.13;17.45;;;1.70;99.90;;;;;;5034666;28;20116;-76
2020/12/18 02:34:25;;;;;;;226.27;25.40;;;1.70;99.90;;;;;;5053344;28;20059;-76
2020/12/18 02:36:51;;;;;;;82.80;16.65;;;1.60;99.90;;;;;;5056934;28;20480;-76
2020/12/18 02:39:17;;;;;;;58.67;16.65;;;1.60;99.90;;;;;;5056707;28;20106;-76
2020/12/18 02:41:43;;;;;;;55.50;16.73;;;1.60;99.90;;;;;;5056688;28;20044;-76
2020/12/18 02:44:09;;;;;;;74.57;17.67;;;1.60;99.90;;;;;;5038702;28;20036;-75
2020/12/18 02:46:35;;;;;;;135.88;23.35;;;1.60;99.90;;;;;;5055283;28;20028;-75
2020/12/18 02:49:01;;;;;;;219.15;28.27;;;1.60;99.90;;;;;;5056472;28;20021;-76
2020/12/18 02:51:26;;;;;;;84.68;17.45;;;1.50;99.90;;;;;;5055227;28;20410;-76
2020/12/18 02:53:52;;;;;;;150.32;22.95;;;1.50;99.90;;;;;;5038576;28;20025;-76
2020/12/18 02:56:27;;;;;;;126.50;23.25;;;1.40;99.90;;;;;;5055085;28;20035;-76
2020/12/18 02:58:53;;;;;;;29.33;13.85;;;1.40;99.90;;;;;;5060834;28;20052;-76
2020/12/18 03:01:20;;;;;;;49.05;15.73;;;1.40;99.90;;;;;;5062180;28;20032;-75
2020/12/18 03:03:46;;;;;;;28.17;15.32;;;1.40;99.90;;;;;;5063486;28;20068;-75
2020/12/18 03:06:11;;;;;;;26.77;15.07;;;1.50;99.90;;;;;;5058243;28;20021;-75
2020/12/18 03:08:37;;;;;;;45.17;14.95;;;1.50;99.90;;;;;;5057919;28;20021;-75
2020/12/18 03:11:04;;;;;;;24.15;13.77;;;1.50;99.90;;;;;;5039139;28;20021;-75
2020/12/18 03:13:30;;;;;;;43.75;14.30;;;1.60;99.90;;;;;;5055082;28;20112;-76
2020/12/18 03:15:55;;;;;;;134.40;20.95;;;1.60;99.90;;;;;;5054870;28;20064;-76
2020/12/18 03:18:21;;;;;;;21.58;12.40;;;1.60;99.90;;;;;;5055095;28;20017;-76
2020/12/18 03:20:47;;;;;;;21.70;11.77;;;1.60;99.90;;;;;;5056173;28;20029;-76
2020/12/18 03:23:12;;;;;;;183.77;23.67;;;1.60;99.90;;;;;;5056169;28;20032;-76
2020/12/18 03:25:38;;;;;;;46.42;13.23;;;1.60;99.90;;;;;;5055984;28;20111;-76
2020/12/18 03:28:04;;;;;;;23.05;11.32;;;1.50;99.90;;;;;;5064250;23;20048;-76
2020/12/18 03:30:29;;;;;;;18.90;11.73;;;1.50;99.90;;;;;;5037185;28;20022;-76
2020/12/18 03:32:55;;;;;;;18.67;11.10;;;1.50;99.90;;;;;;5019231;28;20065;-76
2020/12/18 03:35:21;;;;;;;24.85;12.88;;;1.50;99.90;;;;;;5036718;28;20036;-76
2020/12/18 03:37:47;;;;;;;18.33;11.73;;;1.60;99.90;;;;;;5036730;28;20071;-76
2020/12/18 03:40:15;;;;;;;19.90;11.43;;;1.60;99.90;;;;;;5036212;28;20108;-76
2020/12/18 03:42:44;;;;;;;19.65;12.55;;;1.60;99.90;;;;;;5035272;28;20022;-76
2020/12/18 03:45:09;;;;;;;19.98;12.38;;;1.60;99.90;;;;;;5036057;28;20026;-76
2020/12/18 03:47:35;;;;;;;59.42;14.82;;;1.60;99.90;;;;;;5036618;28;20018;-76
2020/12/18 03:50:01;;;;;;;18.58;11.82;;;1.60;99.90;;;;;;5035434;28;20021;-76
2020/12/18 03:52:29;;;;;;;38.30;14.82;;;1.70;99.90;;;;;;5018700;28;20067;-76
2020/12/18 03:54:54;;;;;;;48.58;13.98;;;1.60;99.90;;;;;;5036597;28;20048;-76
2020/12/18 03:57:20;;;;;;;41.03;12.10;;;1.60;99.90;;;;;;5035508;28;20495;-76
2020/12/18 03:59:46;;;;;;;90.63;17.15;;;1.60;99.90;;;;;;5035645;28;20043;-77
2020/12/18 04:02:11;;;;;;;197.73;24.08;;;1.50;99.90;;;;;;5035301;28;20036;-76
2020/12/18 04:04:37;;;;;;;35.95;13.88;;;1.50;99.90;;;;;;5035635;28;20024;-76
2020/12/18 04:07:02;;;;;;;25.58;12.43;;;1.40;99.90;;;;;;5037008;28;20107;-76
2020/12/18 04:09:28;;;;;;;30.17;15.48;;;1.40;99.90;;;;;;5036356;28;20045;-76
2020/12/18 04:11:54;;;;;;;65.88;19.33;;;1.40;99.90;;;;;;5034905;28;20439;-76
2020/12/18 04:14:19;;;;;;;108.00;19.52;;;1.40;99.90;;;;;;5036353;28;20448;-76
2020/12/18 04:16:45;;;;;;;65.70;15.25;;;1.40;99.90;;;;;;5035915;28;20022;-76
2020/12/18 04:19:10;;;;;;;34.20;14.90;;;1.40;99.90;;;;;;5035692;28;20075;-76
2020/12/18 04:21:36;;;;;;;90.57;18.15;;;1.30;99.90;;;;;;5035539;28;20378;-76
2020/12/18 04:24:03;;;;;;;42.80;16.50;;;1.40;99.90;;;;;;5035902;28;20064;-76
2020/12/18 04:26:28;;;;;;;31.33;14.30;;;1.40;99.90;;;;;;5035425;28;20071;-76
2020/12/18 04:28:54;;;;;;;43.83;16.00;;;1.40;99.90;;;;;;5035508;28;20477;-76
2020/12/18 04:31:20;;;;;;;34.42;17.27;;;1.40;99.90;;;;;;5035681;28;20022;-76
2020/12/18 04:33:46;;;;;;;54.22;17.95;;;1.50;99.90;;;;;;5034027;28;20030;-76
2020/12/18 04:36:12;;;;;;;47.72;19.27;;;1.50;99.90;;;;;;5035236;28;20033;-76
2020/12/18 04:38:38;;;;;;;46.67;17.38;;;1.50;99.90;;;;;;5035059;28;20103;-76
2020/12/18 04:41:04;;;;;;;96.20;22.00;;;1.50;99.90;;;;;;5033815;28;20037;-76
2020/12/18 04:43:30;;;;;;;54.35;19.13;;;1.50;99.90;;;;;;5033932;28;20025;-76
2020/12/18 04:45:58;;;;;;;72.95;20.30;;;1.50;99.90;;;;;;5033973;28;20025;-76
2020/12/18 04:48:28;;;;;;;57.13;18.75;;;1.50;99.90;;;;;;5034813;28;20040;-76
2020/12/18 04:50:57;;;;;;;35.03;17.42;;;1.50;99.90;;;;;;5034655;28;20035;-76
2020/12/18 04:53:32;;;;;;;34.58;15.88;;;1.50;99.90;;;;;;5033223;28;20427;-76
2020/12/18 04:56:09;;;;;;;29.92;14.93;;;1.50;99.90;;;;;;5033266;28;20026;-76
2020/12/18 04:58:36;;;;;;;43.50;16.55;;;1.50;99.90;;;;;;5033771;28;20025;-76
2020/12/18 05:01:02;;;;;;;69.32;16.08;;;1.50;99.90;;;;;;5034311;28;20022;-76
2020/12/18 05:03:32;;;;;;;53.00;16.58;;;1.50;99.90;;;;;;5032970;28;20033;-76
2020/12/18 05:05:59;;;;;;;21.48;12.25;;;1.50;99.90;;;;;;5016534;28;20018;-76
2020/12/18 05:08:26;;;;;;;49.80;14.30;;;1.50;99.90;;;;;;5034257;28;20056;-76
2020/12/18 05:10:52;;;;;;;24.35;12.93;;;1.50;99.90;;;;;;5032872;28;20033;-76
2020/12/18 05:13:19;;;;;;;32.10;14.30;;;1.50;99.90;;;;;;5034405;28;20025;-76
2020/12/18 05:15:45;;;;;;;28.48;14.15;;;1.50;99.90;;;;;;5034742;28;20159;-76
2020/12/18 05:18:12;;;;;;;59.60;17.98;;;1.50;99.90;;;;;;5033122;28;20069;-76
2020/12/18 05:20:38;;;;;;;54.53;15.60;;;1.50;99.90;;;;;;5033087;28;20033;-76
2020/12/18 05:23:09;;;;;;;71.22;16.00;;;1.40;99.90;;;;;;5034425;28;20029;-76
2020/12/18 05:25:38;;;;;;;106.17;17.97;;;1.40;99.90;;;;;;5032997;28;20017;-76
2020/12/18 05:28:05;;;;;;;47.35;14.23;;;1.40;99.90;;;;;;5032678;28;20492;-76
2020/12/18 05:30:31;;;;;;;46.58;15.07;;;1.30;99.90;;;;;;5033101;28;20052;-77
2020/12/18 05:32:57;;;;;;;27.80;13.90;;;1.30;99.90;;;;;;5032579;28;20021;-76
2020/12/18 05:35:23;;;;;;;45.80;16.63;;;1.30;99.90;;;;;;5015868;28;20029;-76
2020/12/18 05:37:51;;;;;;;68.75;15.60;;;1.30;99.90;;;;;;5034109;28;20112;-76
2020/12/18 05:40:17;;;;;;;55.92;17.30;;;1.40;99.90;;;;;;5033789;28;20028;-77
2020/12/18 05:42:47;;;;;;;84.60;16.83;;;1.30;99.90;;;;;;5034346;28;20116;-77
2020/12/18 05:45:18;;;;;;;107.32;18.95;;;1.30;99.90;;;;;;5034332;28;20022;-77
2020/12/18 05:47:57;;;;;;;58.90;14.80;;;1.30;99.90;;;;;;5033771;28;20410;-76
2020/12/18 05:50:31;;;;;;;99.80;19.73;;;1.30;99.90;;;;;;5032396;28;20392;-77
2020/12/18 05:52:59;;;;;;;23.80;12.85;;;1.30;99.90;;;;;;5032397;28;20025;-75
2020/12/18 05:55:25;;;;;;;26.80;13.52;;;1.30;99.90;;;;;;5033308;28;20100;-76
2020/12/18 05:57:53;;;;;;;23.08;13.52;;;1.30;99.90;;;;;;5033236;28;20400;-76
2020/12/18 06:00:21;;;;;;;26.10;13.82;;;1.30;99.90;;;;;;5032168;28;20025;-76
2020/12/18 06:02:56;;;;;;;23.40;12.50;;;1.40;99.90;;;;;;5033453;28;20175;-76
2020/12/18 06:05:23;;;;;;;98.78;17.48;;;1.40;99.90;;;;;;5033448;28;20029;-76
2020/12/18 06:07:50;;;;;;;37.25;13.15;;;1.40;99.90;;;;;;5033547;28;20029;-76
2020/12/18 06:10:16;;;;;;;21.58;12.60;;;1.40;99.90;;;;;;5033266;28;20484;-76
2020/12/18 06:12:42;;;;;;;77.30;17.13;;;1.40;99.90;;;;;;5033464;28;20400;-76
2020/12/18 06:15:08;;;;;;;55.50;14.35;;;1.40;99.90;;;;;;5033148;28;20028;-76
2020/12/18 06:17:35;;;;;;;41.78;13.82;;;1.40;99.90;;;;;;5033288;28;20032;-76
2020/12/18 06:20:03;;;;;;;28.13;13.13;;;1.30;99.90;;;;;;5033195;28;20519;-76
2020/12/18 06:22:28;;;;;;;22.38;12.00;;;1.30;99.90;;;;;;5032939;28;20025;-76
2020/12/18 06:24:54;;;;;;;46.42;14.50;;;1.30;99.90;;;;;;5032952;28;20028;-76
2020/12/18 06:27:20;;;;;;;58.50;15.13;;;1.30;99.90;;;;;;5031491;28;20041;-77
2020/12/18 06:29:46;;;;;;;57.42;14.73;;;1.30;99.90;;;;;;5033229;28;20026;-77
2020/12/18 06:32:24;;;;;;;74.40;15.48;;;1.30;99.90;;;;;;5031624;28;20021;-77
2020/12/18 06:34:50;;;;;;;47.42;13.32;;;1.30;99.90;;;;;;5031999;28;20447;-77
2020/12/18 06:37:32;;;;;;;80.47;16.88;;;1.30;99.90;;;;;;5033207;28;20021;-77
2020/12/18 06:39:59;;;;;;;40.43;12.03;;;1.20;99.90;;;;;;5033445;28;20480;-77
2020/12/18 06:42:27;;;;;;;41.92;12.77;;;1.20;99.90;;;;;;5015451;28;20396;-77
2020/12/18 06:44:53;;;;;;;57.80;13.20;;;1.20;99.90;;;;;;5031797;28;20551;-77
2020/12/18 06:47:25;;;;;;;45.95;12.38;;;1.20;99.90;;;;;;5032955;28;20037;-77
2020/12/18 06:49:56;;;;;;;44.63;8.85;;;1.20;99.90;;;;;;5032949;28;20021;-77
2020/12/18 06:52:48;;;;;;;23.07;10.80;;;1.10;99.90;;;;;;5032066;28;20045;-77
2020/12/18 06:55:34;;;;;;;75.78;13.90;;;1.00;99.90;;;;;;5032725;28;20550;-77
2020/12/18 06:58:14;;;;;;;78.18;14.70;;;1.00;99.90;;;;;;5032815;28;20112;-76
2020/12/18 07:00:49;;;;;;;20.27;10.25;;;0.90;99.90;;;;;;5033004;28;20025;-77
2020/12/18 07:03:35;;;;;;;40.38;13.95;;;0.90;99.90;;;;;;5031329;28;20033;-76
2020/12/18 07:06:09;;;;;;;23.98;11.15;;;0.90;99.90;;;;;;5032729;28;20013;-76
2020/12/18 07:08:36;;;;;;;98.32;18.13;;;0.90;99.90;;;;;;5031843;28;20076;-76
2020/12/18 07:11:14;;;;;;;91.72;17.00;;;0.90;99.90;;;;;;5032558;28;20488;-76
2020/12/18 07:13:41;;;;;;;104.80;18.40;;;0.90;99.90;;;;;;5031316;28;20043;-76
2020/12/18 07:16:09;;;;;;;249.15;31.85;;;0.90;99.90;;;;;;5032736;28;20025;-75
2020/12/18 07:18:40;;;;;;;191.38;22.25;;;0.80;99.90;;;;;;5033179;28;20029;-76
2020/12/18 07:21:11;;;;;;;27.80;10.88;;;0.80;99.90;;;;;;5034896;28;20028;-76
2020/12/18 07:23:38;;;;;;;121.13;21.17;;;0.90;99.90;;;;;;5035379;28;20036;-76
2020/12/18 07:26:05;;;;;;;49.28;12.35;;;0.90;99.90;;;;;;5036418;28;20104;-76
2020/12/18 07:28:32;;;;;;;29.05;11.52;;;0.90;99.90;;;;;;5036016;28;20121;-76
2020/12/18 07:30:58;;;;;;;44.65;12.55;;;0.90;99.90;;;;;;5018417;28;20075;-76
2020/12/18 07:33:25;;;;;;;141.10;19.50;;;0.90;99.90;;;;;;5036074;28;20029;-76
2020/12/18 07:35:53;;;;;;;27.45;12.65;;;1.00;99.90;;;;;;5018166;28;20037;-76
2020/12/18 07:38:26;;;;;;;118.15;21.55;;;0.90;99.90;;;;;;5034636;28;20446;-75
2020/12/18 07:40:54;;;;;;;117.45;17.77;;;0.80;99.90;;;;;;5035811;28;20514;-75
2020/12/18 07:43:22;;;;;;;40.38;15.13;;;0.70;99.90;;;;;;5035718;28;20100;-75
2020/12/18 07:45:50;;;;;;;52.75;12.65;;;0.70;99.90;;;;;;5035767;28;20024;-75
2020/12/18 07:48:19;;;;;;;92.55;16.38;;;0.70;99.90;;;;;;5034339;28;20435;-75
2020/12/18 07:50:54;;;;;;;50.97;11.98;;;0.70;99.90;;;;;;5017947;28;20021;-75
2020/12/18 07:53:21;;;;;;;32.45;13.05;;;0.70;99.90;;;;;;5017778;28;20036;-76
2020/12/18 07:56:03;;;;;;;53.00;14.93;;;0.70;99.90;;;;;;5034211;28;20120;-76
2020/12/18 07:58:30;;;;;;;24.67;13.43;;;0.80;99.90;;;;;;5034500;28;20399;-75
2020/12/18 08:01:32;;;;;;;36.60;14.23;;;0.90;99.90;;;;;;5035446;28;20111;-75
2020/12/18 08:03:59;;;;;;;44.80;12.88;;;0.90;99.90;;;;;;5029649;28;20038;-75
2020/12/18 08:06:29;;;;;;;56.65;14.25;;;1.00;99.90;;;;;;5035312;28;20021;-75
2020/12/18 08:09:06;;;;;;;48.42;15.23;;;1.00;99.90;;;;;;5035390;28;20021;-75
2020/12/18 08:11:34;;;;;;;52.22;14.35;;;1.00;99.90;;;;;;5035376;28;20369;-75
2020/12/18 08:14:01;;;;;;;38.30;14.35;;;1.00;99.90;;;;;;5035252;28;20037;-75
2020/12/18 08:16:31;;;;;;;50.55;15.07;;;1.00;99.90;;;;;;5035459;28;20040;-75
2020/12/18 08:19:03;;;;;;;79.75;17.50;;;1.10;99.90;;;;;;5035275;28;20506;-75
2020/12/18 08:21:34;;;;;;;33.95;14.18;;;1.00;99.90;;;;;;5035138;28;20035;-76
2020/12/18 08:24:01;;;;;;;27.10;13.82;;;0.80;99.90;;;;;;5033793;28;20032;-75
2020/12/18 08:26:31;;;;;;;32.70;14.35;;;0.80;99.90;;;;;;5035304;28;20025;-76
2020/12/18 08:28:57;;;;;;;42.33;15.77;;;0.90;99.90;;;;;;5035927;28;20030;-75
2020/12/18 08:31:23;;;;;;;43.83;16.58;;;1.00;99.90;;;;;;5034856;28;20104;-75
2020/12/18 08:33:54;;;;;;;107.00;23.98;;;1.10;99.90;;;;;;5033257;28;20068;-75
2020/12/18 08:36:23;;;;;;;123.70;21.67;;;1.20;99.90;;;;;;5034757;28;20029;-75
2020/12/18 08:39:00;;;;;;;92.85;20.38;;;1.30;99.90;;;;;;5033530;28;20052;-75
2020/12/18 08:41:25;;;;;;;47.47;18.52;;;1.40;99.90;;;;;;5016982;28;20385;-75
2020/12/18 08:44:10;;;;;;;71.22;20.88;;;1.30;99.90;;;;;;5033307;28;20056;-75
2020/12/18 08:46:37;;;;;;;92.13;19.48;;;1.40;99.90;;;;;;5034702;28;20100;-75
2020/12/18 08:49:15;;;;;;;37.38;15.48;;;1.50;99.90;;;;;;5033239;28;20025;-75
2020/12/18 08:51:41;;;;;;;43.47;15.90;;;1.50;99.90;;;;;;5033351;28;20022;-75
2020/12/18 08:54:29;;;;;;;58.63;18.33;;;1.60;99.90;;;;;;5034515;28;20049;-75
2020/12/18 08:57:17;;;;;;;102.45;21.83;;;1.70;99.90;;;;;;5034666;28;20017;-75
2020/12/18 09:00:12;;;;;;;41.75;16.35;;;1.70;99.90;;;;;;5033223;28;20056;-75
2020/12/18 09:02:41;;;;;;;51.42;17.90;;;1.80;99.90;;;;;;5033033;28;20025;-74
2020/12/18 09:05:24;;;;;;;63.10;19.67;;;1.80;99.90;;;;;;5034284;28;20435;-75
2020/12/18 09:08:00;;;;;;;76.88;20.23;;;1.90;99.90;;;;;;5034246;28;20105;-75
2020/12/18 09:10:51;;;;;;;47.55;19.40;;;2.00;99.90;;;;;;5033118;28;20108;-75
2020/12/18 09:13:25;;;;;;;51.75;17.38;;;2.20;99.90;;;;;;5034249;28;20565;-75
2020/12/18 09:15:59;;;;;;;97.57;21.23;;;2.40;99.90;;;;;;5016365;28;20108;-75
2020/12/18 09:18:26;;;;;;;129.80;26.80;;;2.40;99.90;;;;;;5034069;28;20033;-75
2020/12/18 09:20:53;;;;;;;41.10;18.88;;;2.40;99.90;;;;;;5032779;28;20033;-75
2020/12/18 09:23:31;;;;;;;62.72;20.15;;;2.60;99.90;;;;;;5034113;28;20030;-75
2020/12/18 09:25:59;;;;;;;53.33;20.10;;;2.60;99.90;;;;;;5032688;28;20481;-75
2020/12/18 09:28:25;;;;;;;35.47;16.45;;;2.50;99.90;;;;;;5072238;22;20041;-72
2020/12/18 09:30:52;;;;;;;51.35;18.02;;;2.60;99.90;;;;;;5035673;28;20045;-72
2020/12/18 09:33:32;;;;;;;35.58;17.00;;;2.60;99.90;;;;;;5035618;28;20500;-73
2020/12/18 09:36:06;;;;;;;40.45;17.90;;;2.70;99.90;;;;;;5053802;28;20021;-72
2020/12/18 09:38:42;;;;;;;51.55;16.95;;;2.80;99.90;;;;;;5053686;28;20083;-72
2020/12/18 09:41:10;;;;;;;24.25;14.57;;;2.80;99.90;;;;;;5053807;28;20472;-72
2020/12/18 09:43:36;;;;;;;28.25;14.40;;;2.90;99.90;;;;;;5035160;28;20563;-73
2020/12/18 09:46:02;;;;;;;25.77;13.77;;;3.00;99.90;;;;;;5052180;28;20062;-73
2020/12/18 09:48:28;;;;;;;26.88;14.13;;;3.10;99.90;;;;;;5051945;28;20025;-73
2020/12/18 09:50:58;;;;;;;27.90;14.63;;;3.20;99.90;;;;;;5053580;28;20542;-73
2020/12/18 09:53:25;;;;;;;36.30;15.75;;;3.20;99.90;;;;;;5053320;28;20108;-72
2020/12/18 09:55:52;;;;;;;35.47;14.55;;;3.20;99.90;;;;;;5053275;28;20032;-72
2020/12/18 09:58:18;;;;;;;35.85;18.52;;;3.00;99.90;;;;;;5053161;28;20148;-73
2020/12/18 10:00:44;;;;;;;51.90;20.83;;;3.00;99.90;;;;;;5053162;28;20432;-73
2020/12/18 10:03:10;;;;;;;41.00;19.30;;;3.00;99.90;;;;;;5035329;28;20025;-72
2020/12/18 10:05:36;;;;;;;34.97;18.73;;;2.90;99.90;;;;;;5035108;28;20021;-72
2020/12/18 10:08:02;;;;;;;39.35;19.48;;;2.90;99.90;;;;;;5035859;28;20021;-73
2020/12/18 10:10:29;;;;;;;34.13;16.77;;;3.00;99.90;;;;;;5053554;28;20025;-73
2020/12/18 10:12:55;;;;;;;33.28;14.88;;;2.90;99.90;;;;;;5034967;28;20021;-73
2020/12/18 10:15:21;;;;;;;36.00;16.08;;;2.70;99.90;;;;;;5052948;28;20031;-73
2020/12/18 10:17:47;;;;;;;27.77;15.48;;;2.60;99.90;;;;;;5052840;28;20492;-73
2020/12/18 10:20:12;;;;;;;25.65;14.23;;;2.70;99.90;;;;;;5051889;28;20075;-73
2020/12/18 10:22:38;;;;;;;23.05;12.07;;;2.70;99.90;;;;;;5053053;28;20476;-73
2020/12/18 10:25:04;;;;;;;23.13;12.63;;;2.70;99.90;;;;;;5034840;28;20024;-73
2020/12/18 10:27:29;;;;;;;25.02;13.73;;;2.70;99.90;;;;;;5052488;28;20491;-73
2020/12/18 10:29:55;;;;;;;26.42;14.65;;;2.80;99.90;;;;;;5052922;28;20388;-73
2020/12/18 10:32:25;;;;;;;40.83;18.30;;;2.90;99.90;;;;;;5052979;28;20056;-73
2020/12/18 10:34:50;;;;;;;32.42;16.77;;;2.90;99.90;;;;;;5052762;28;20066;-73
2020/12/18 10:37:16;;;;;;;33.13;17.73;;;3.00;99.90;;;;;;5034765;28;20016;-72
2020/12/18 10:39:41;;;;;;;37.95;18.70;;;3.20;99.90;;;;;;5052878;28;20497;-73
2020/12/18 10:42:08;;;;;;;38.22;19.70;;;3.20;99.90;;;;;;5052848;28;20030;-73
2020/12/18 10:44:35;;;;;;;63.08;20.70;;;3.30;99.90;;;;;;5052927;28;20112;-73
2020/12/18 10:47:01;;;;;;;42.38;18.27;;;3.30;99.90;;;;;;5052561;28;20021;-73
2020/12/18 10:49:27;;;;;;;50.03;19.75;;;3.30;99.90;;;;;;5052617;28;20102;-73
2020/12/18 10:51:53;;;;;;;53.40;20.92;;;3.30;99.90;;;;;;5052926;28;20108;-73
2020/12/18 10:54:18;;;;;;;40.17;20.55;;;3.30;99.90;;;;;;5052667;28;20060;-73
2020/12/18 10:56:47;;;;;;;42.55;20.65;;;3.30;99.90;;;;;;5055378;28;20104;-73
2020/12/18 10:59:13;;;;;;;53.55;19.13;;;3.50;99.90;;;;;;5055274;28;20032;-73
2020/12/18 11:01:38;;;;;;;36.78;17.25;;;3.50;99.90;;;;;;5038702;28;20025;-73
2020/12/18 11:04:04;;;;;;;31.73;17.45;;;3.50;99.90;;;;;;5055079;28;20033;-73
2020/12/18 11:06:30;;;;;;;33.53;17.55;;;3.60;99.90;;;;;;5056317;28;20441;-72
2020/12/18 11:08:56;;;;;;;44.65;19.30;;;3.60;99.90;;;;;;5038547;28;20017;-72
2020/12/18 11:11:22;;;;;;;36.67;17.75;;;3.70;99.90;;;;;;5054938;28;20032;-73
2020/12/18 11:13:48;;;;;;;54.10;19.75;;;3.80;99.90;;;;;;5056280;28;20029;-73
2020/12/18 11:16:17;;;;;;;59.47;19.20;;;3.80;99.90;;;;;;5056293;28;20040;-73
2020/12/18 11:18:43;;;;;;;41.90;19.27;;;3.80;99.90;;;;;;5056198;28;20025;-72
2020/12/18 11:21:09;;;;;;;31.95;16.88;;;3.90;99.90;;;;;;5056101;28;20032;-73
2020/12/18 11:23:36;;;;;;;39.25;17.90;;;3.80;99.90;;;;;;5056457;28;20025;-72
2020/12/18 11:26:02;;;;;;;34.13;17.23;;;3.70;99.90;;;;;;5056020;28;20025;-73
2020/12/18 11:28:28;;;;;;;70.70;19.75;;;3.70;99.90;;;;;;5037856;28;20506;-73
2020/12/18 11:30:54;;;;;;;84.35;20.83;;;3.50;99.90;;;;;;5056172;28;20029;-72
2020/12/18 11:33:20;;;;;;;30.52;16.98;;;3.50;99.90;;;;;;5054697;28;20065;-73
2020/12/18 11:35:45;;;;;;;27.80;15.68;;;3.60;99.90;;;;;;5055926;28;20104;-72
2020/12/18 11:38:11;;;;;;;44.50;20.30;;;3.70;99.90;;;;;;5037944;28;20021;-72
2020/12/18 11:40:37;;;;;;;49.85;21.23;;;3.70;99.90;;;;;;5054514;28;20029;-73
2020/12/18 11:43:03;;;;;;;49.10;18.88;;;3.70;99.90;;;;;;5054455;28;20480;-73
2020/12/18 11:45:28;;;;;;;27.85;17.25;;;3.70;99.90;;;;;;5055708;28;20389;-72
2020/12/18 11:47:54;;;;;;;43.50;19.52;;;3.70;99.90;;;;;;5037623;28;20021;-72
2020/12/18 11:50:20;;;;;;;43.67;20.85;;;3.60;99.90;;;;;;5055437;28;20031;-72
2020/12/18 11:52:45;;;;;;;65.15;21.48;;;3.70;99.90;;;;;;5037572;28;20029;-72
2020/12/18 11:55:11;;;;;;;37.72;19.33;;;3.70;99.90;;;;;;5055486;28;20563;-72
2020/12/18 11:57:36;;;;;;;31.60;16.98;;;3.60;99.90;;;;;;5037469;28;20025;-72
2020/12/18 12:00:05;;;;;;;35.33;18.60;;;3.70;99.90;;;;;;5055294;28;20036;-72
2020/12/18 12:02:33;;;;;;;44.70;19.35;;;3.70;99.90;;;;;;5055163;28;20032;-72
2020/12/18 12:04:59;;;;;;;41.00;18.83;;;3.70;99.90;;;;;;5055305;28;20021;-72
2020/12/18 12:07:25;;;;;;;40.85;19.33;;;3.60;99.90;;;;;;5055005;28;20020;-72
2020/12/18 12:09:51;;;;;;;62.75;21.38;;;3.60;99.90;;;;;;5053864;28;20022;-72
2020/12/18 12:12:16;;;;;;;39.75;20.30;;;3.50;99.90;;;;;;5055108;28;20021;-72
2020/12/18 12:14:42;;;;;;;37.92;19.00;;;3.70;99.90;;;;;;5053799;28;20025;-72
2020/12/18 12:17:08;;;;;;;35.00;18.50;;;3.80;99.90;;;;;;5054963;28;20063;-72
2020/12/18 12:19:34;;;;;;;49.20;19.85;;;3.80;99.90;;;;;;5055089;28;20025;-72
2020/12/18 12:21:59;;;;;;;62.03;22.95;;;3.80;99.90;;;;;;5055449;28;20036;-73
2020/12/18 12:24:25;;;;;;;77.93;24.33;;;3.70;99.90;;;;;;5055111;28;20025;-72
2020/12/18 12:26:50;;;;;;;50.70;20.75;;;3.60;99.90;;;;;;5054851;28;20381;-72
2020/12/18 12:29:17;;;;;;;41.08;21.25;;;3.70;99.90;;;;;;5055130;28;20571;-72
2020/12/18 12:31:43;;;;;;;52.63;21.48;;;3.80;99.90;;;;;;5054813;28;20029;-72
2020/12/18 12:34:08;;;;;;;42.70;21.95;;;3.80;99.90;;;;;;5053548;28;20028;-72
2020/12/18 12:36:34;;;;;;;43.85;21.38;;;3.80;99.90;;;;;;5054920;28;20036;-72
2020/12/18 12:38:59;;;;;;;56.10;22.20;;;3.90;99.90;;;;;;5054630;28;20090;-72